Time;durP1;ratioP1;P1;durP2;ratioP2;P2;SDS_P1;SDS_P2;PMS_P1;PMS_P2;Temp;Humidity;BMP_temperature;BMP_pressure;BME280_temperature;BME280_humidity;BME280_pressure;Samples;Min_cycle;Max_cycle;Signal;HPM_P1;HPM_P2
2022/09/13 00:00:18;;;;;;;5.53;4.85;;;20.50;99.90;;;;;;5016148;28;20508;-34
2022/09/13 00:02:44;;;;;;;5.20;3.83;;;20.50;99.90;;;;;;5014312;28;20040;-31
2022/09/13 00:05:10;;;;;;;4.78;3.70;;;20.50;99.90;;;;;;5011896;28;20560;-36
2022/09/13 00:07:35;;;;;;;5.60;3.83;;;20.60;99.90;;;;;;5013192;28;20041;-39
2022/09/13 00:10:01;;;;;;;6.93;4.28;;;20.60;99.90;;;;;;5013222;28;20471;-31
2022/09/13 00:12:26;;;;;;;11.07;4.05;;;20.60;99.90;;;;;;5011884;28;20120;-34
2022/09/13 00:14:52;;;;;;;5.80;3.95;;;20.60;99.90;;;;;;5017656;28;20065;-36
2022/09/13 00:17:18;;;;;;;4.80;3.78;;;20.60;99.90;;;;;;5011873;28;20447;-43
2022/09/13 00:19:43;;;;;;;5.18;3.30;;;20.50;99.90;;;;;;5014244;28;20041;-33
2022/09/13 00:22:09;;;;;;;6.45;4.60;;;20.50;99.90;;;;;;5014340;28;20029;-37
2022/09/13 00:24:34;;;;;;;6.13;4.47;;;20.50;99.90;;;;;;5012362;28;20026;-33
2022/09/13 00:27:00;;;;;;;8.13;5.20;;;20.50;99.90;;;;;;5014964;28;20513;-36
2022/09/13 00:29:26;;;;;;;9.05;5.15;;;20.50;99.90;;;;;;5015350;28;20068;-36
2022/09/13 00:31:52;;;;;;;5.25;3.80;;;20.50;99.90;;;;;;5026150;28;20531;-34
2022/09/13 00:34:18;;;;;;;8.88;3.72;;;20.50;99.90;;;;;;5036624;28;20509;-34
2022/09/13 00:36:43;;;;;;;4.53;3.42;;;20.40;99.90;;;;;;5035565;28;20021;-34
2022/09/13 00:39:10;;;;;;;3.97;3.55;;;20.40;99.90;;;;;;5014738;28;20048;-35
2022/09/13 00:41:36;;;;;;;4.82;3.95;;;20.40;99.90;;;;;;5024875;28;20113;-33
2022/09/13 00:44:02;;;;;;;5.15;3.45;;;20.40;99.90;;;;;;5031562;28;20484;-30
2022/09/13 00:46:44;;;;;;;3.97;3.58;;;20.30;99.90;;;;;;5030760;28;20116;-32
2022/09/13 00:49:23;;;;;;;5.60;4.15;;;20.30;99.90;;;;;;5028612;28;20463;-34
2022/09/13 00:51:53;;;;;;;6.10;4.47;;;20.20;99.90;;;;;;5029993;28;20036;-38
2022/09/13 00:54:22;;;;;;;4.47;3.60;;;20.20;99.90;;;;;;5033465;28;20474;-35
2022/09/13 00:56:54;;;;;;;6.95;4.47;;;20.20;99.90;;;;;;5029457;28;20125;-39
2022/09/13 00:59:27;;;;;;;6.97;4.70;;;20.20;99.90;;;;;;5024702;28;20104;-30
2022/09/13 01:01:55;;;;;;;7.63;4.95;;;20.20;99.90;;;;;;5030610;28;20021;-29
2022/09/13 01:04:26;;;;;;;4.90;4.30;;;20.20;99.90;;;;;;5016995;28;20025;-32
2022/09/13 01:06:58;;;;;;;5.97;5.05;;;20.10;99.90;;;;;;5033586;28;20533;-30
2022/09/13 01:09:24;;;;;;;7.43;4.75;;;20.10;99.90;;;;;;5032297;28;20421;-34
2022/09/13 01:11:59;;;;;;;8.13;6.03;;;20.10;99.90;;;;;;5028929;28;20025;-33
2022/09/13 01:14:25;;;;;;;7.88;6.00;;;20.10;99.90;;;;;;5024991;28;20535;-33
2022/09/13 01:16:52;;;;;;;8.35;5.63;;;20.10;99.90;;;;;;5026085;28;20025;-34
2022/09/13 01:19:18;;;;;;;8.77;5.80;;;20.10;99.90;;;;;;5031710;28;20516;-31
2022/09/13 01:22:05;;;;;;;14.25;6.93;;;20.10;99.90;;;;;;5030971;28;20030;-31
2022/09/13 01:24:46;;;;;;;12.30;7.18;;;20.10;99.90;;;;;;5027599;28;20033;-32
2022/09/13 01:27:38;;;;;;;12.30;8.15;;;20.20;99.90;;;;;;5032983;28;20033;-36
2022/09/13 01:30:20;;;;;;;8.23;6.00;;;20.20;99.90;;;;;;5042094;28;20539;-32
2022/09/13 01:33:07;;;;;;;8.65;5.35;;;20.10;99.90;;;;;;5033240;28;20029;-35
2022/09/13 01:36:03;;;;;;;7.03;5.30;;;20.10;99.90;;;;;;5031062;28;20542;-32
2022/09/13 01:38:51;;;;;;;9.75;6.18;;;20.00;99.90;;;;;;5029930;28;20053;-32
2022/09/13 01:41:41;;;;;;;10.70;6.72;;;20.00;99.90;;;;;;5024178;28;20025;-33
2022/09/13 01:44:25;;;;;;;9.57;6.28;;;20.00;99.90;;;;;;5031182;28;20018;-33
2022/09/13 01:47:13;;;;;;;11.75;7.25;;;20.10;99.90;;;;;;5031532;28;20474;-38
2022/09/13 01:50:02;;;;;;;16.00;9.43;;;20.10;99.90;;;;;;5023603;28;20441;-35
2022/09/13 01:52:52;;;;;;;13.90;7.50;;;20.00;99.90;;;;;;5031760;28;20032;-35
2022/09/13 01:55:34;;;;;;;13.02;7.75;;;19.90;99.90;;;;;;5032482;28;20033;-38
2022/09/13 01:58:40;;;;;;;16.88;9.70;;;19.90;99.90;;;;;;5030315;28;20405;-31
2022/09/13 02:01:15;;;;;;;9.93;5.85;;;19.80;99.90;;;;;;4989896;28;20450;-30
2022/09/13 02:03:54;;;;;;;11.10;7.28;;;19.80;99.90;;;;;;5018257;28;20087;-29
2022/09/13 02:06:25;;;;;;;15.00;8.48;;;19.90;99.90;;;;;;5020521;28;20029;-33
2022/09/13 02:08:59;;;;;;;14.38;10.13;;;19.90;99.90;;;;;;5026129;28;20470;-32
2022/09/13 02:11:26;;;;;;;12.02;7.55;;;19.90;99.90;;;;;;5032495;28;20116;-31
2022/09/13 02:14:06;;;;;;;16.30;9.05;;;19.90;99.90;;;;;;5037315;28;20044;-40
2022/09/13 02:16:40;;;;;;;11.15;7.78;;;19.90;99.90;;;;;;5033661;28;20112;-31
2022/09/13 02:19:34;;;;;;;12.55;7.10;;;19.90;99.90;;;;;;5022364;28;20183;-29
2022/09/13 02:22:02;;;;;;;11.32;7.65;;;19.80;99.90;;;;;;5012067;28;20124;-31
2022/09/13 02:24:33;;;;;;;13.82;7.97;;;19.90;99.90;;;;;;5024834;28;20026;-34
2022/09/13 02:27:04;;;;;;;11.20;7.57;;;19.80;99.90;;;;;;5027018;28;20026;-32
2022/09/13 02:29:32;;;;;;;13.57;8.23;;;19.80;99.90;;;;;;5038010;28;20493;-32
2022/09/13 02:32:10;;;;;;;13.73;8.43;;;19.80;99.90;;;;;;5029664;28;20025;-33
2022/09/13 02:34:47;;;;;;;13.45;8.13;;;19.70;99.90;;;;;;5030670;28;20393;-30
2022/09/13 02:37:13;;;;;;;15.10;9.10;;;19.70;99.90;;;;;;5028492;28;20041;-32
2022/09/13 02:39:46;;;;;;;13.75;8.45;;;19.70;99.90;;;;;;5032765;28;20485;-35
2022/09/13 02:42:25;;;;;;;11.85;8.00;;;19.70;99.90;;;;;;5028575;28;20037;-39
2022/09/13 02:44:57;;;;;;;16.75;9.57;;;19.70;99.90;;;;;;5030451;28;20112;-35
2022/09/13 02:47:32;;;;;;;15.07;9.38;;;19.60;99.90;;;;;;5030368;28;20021;-36
2022/09/13 02:50:29;;;;;;;14.52;9.30;;;19.70;99.90;;;;;;5035031;28;20036;-39
2022/09/13 02:53:24;;;;;;;16.88;8.57;;;19.60;99.90;;;;;;5035199;28;20040;-37
2022/09/13 02:56:11;;;;;;;16.98;9.70;;;19.60;99.90;;;;;;5028789;28;20834;-40
2022/09/13 02:59:02;;;;;;;19.80;11.45;;;19.60;99.90;;;;;;5039923;28;20028;-39
2022/09/13 03:01:28;;;;;;;16.85;9.90;;;19.60;99.90;;;;;;5044261;28;20030;-38
2022/09/13 03:03:54;;;;;;;19.83;11.30;;;19.60;99.90;;;;;;5034727;28;20022;-38
2022/09/13 03:06:27;;;;;;;17.02;11.02;;;19.50;99.90;;;;;;5034487;28;20473;-37
2022/09/13 03:08:56;;;;;;;15.82;9.20;;;19.50;99.90;;;;;;5034445;28;20424;-39
2022/09/13 03:11:47;;;;;;;17.02;9.27;;;19.50;99.90;;;;;;5035692;28;20033;-40
2022/09/13 03:14:19;;;;;;;14.80;9.07;;;19.50;99.90;;;;;;5026920;28;20029;-39
2022/09/13 03:16:56;;;;;;;18.38;10.57;;;19.50;99.90;;;;;;5030640;28;20044;-39
2022/09/13 03:19:51;;;;;;;14.17;8.87;;;19.50;99.90;;;;;;5034949;28;20481;-38
2022/09/13 03:22:49;;;;;;;17.98;11.13;;;19.50;99.90;;;;;;5033174;28;20497;-39
2022/09/13 03:25:51;;;;;;;18.10;10.45;;;19.50;99.90;;;;;;5034201;28;20099;-38
2022/09/13 03:28:45;;;;;;;22.20;11.50;;;19.50;99.90;;;;;;5065885;28;20042;-39
2022/09/13 03:31:29;;;;;;;19.98;10.98;;;19.50;99.90;;;;;;5031121;28;20526;-40
2022/09/13 03:34:08;;;;;;;22.17;12.07;;;19.50;99.90;;;;;;5028479;28;20022;-50
2022/09/13 03:36:44;;;;;;;18.45;11.48;;;19.60;99.90;;;;;;5023003;28;20478;-50
2022/09/13 03:39:45;;;;;;;17.40;10.30;;;19.50;99.90;;;;;;5033923;28;20129;-47
2022/09/13 03:42:21;;;;;;;21.33;12.25;;;19.60;99.90;;;;;;5034959;28;20029;-38
2022/09/13 03:44:49;;;;;;;22.95;13.50;;;19.50;99.90;;;;;;5031681;28;20063;-39
2022/09/13 03:47:17;;;;;;;21.27;12.32;;;19.50;99.90;;;;;;5023674;28;20477;-38
2022/09/13 03:49:43;;;;;;;17.75;10.15;;;19.50;99.90;;;;;;5025350;28;20037;-36
2022/09/13 03:52:09;;;;;;;12.27;9.07;;;19.50;99.90;;;;;;5014114;28;20382;-41
2022/09/13 03:54:37;;;;;;;17.60;9.63;;;19.50;99.90;;;;;;5026366;28;20029;-55
2022/09/13 03:57:16;;;;;;;17.83;10.30;;;19.40;99.90;;;;;;5032317;28;20032;-41
2022/09/13 03:59:53;;;;;;;20.25;11.50;;;19.40;99.90;;;;;;5031607;28;20508;-39
2022/09/13 04:02:20;;;;;;;20.13;11.73;;;19.40;99.90;;;;;;5024182;28;20381;-39
2022/09/13 04:04:47;;;;;;;19.93;10.73;;;19.40;99.90;;;;;;5067285;28;20485;-40
2022/09/13 04:07:23;;;;;;;18.25;10.10;;;19.40;99.90;;;;;;5020239;28;20018;-39
2022/09/13 04:09:49;;;;;;;17.00;10.60;;;19.40;99.90;;;;;;5015461;28;20026;-48
2022/09/13 04:12:16;;;;;;;19.60;11.07;;;19.40;99.90;;;;;;5031233;28;20504;-39
2022/09/13 04:14:43;;;;;;;24.70;13.35;;;19.40;99.90;;;;;;5033160;28;20034;-42
2022/09/13 04:17:09;;;;;;;26.30;14.23;;;19.40;99.90;;;;;;5031777;28;20466;-39
2022/09/13 04:19:35;;;;;;;21.48;12.82;;;19.30;99.90;;;;;;5034372;28;20034;-40
2022/09/13 04:22:00;;;;;;;24.52;12.93;;;19.30;99.90;;;;;;5033717;28;20051;-40
2022/09/13 04:24:28;;;;;;;20.75;11.82;;;19.30;99.90;;;;;;5022026;28;20033;-39
2022/09/13 04:26:55;;;;;;;20.52;10.73;;;19.30;99.90;;;;;;5030262;28;20079;-40
2022/09/13 04:29:22;;;;;;;22.30;11.50;;;19.30;99.90;;;;;;5027090;28;20603;-40
2022/09/13 04:31:49;;;;;;;23.17;12.20;;;19.30;99.90;;;;;;5034383;28;20036;-39
2022/09/13 04:34:17;;;;;;;24.13;12.70;;;19.30;99.90;;;;;;5032684;28;20116;-40
2022/09/13 04:36:43;;;;;;;22.33;11.57;;;19.30;99.90;;;;;;5031800;28;20119;-39
2022/09/13 04:39:09;;;;;;;23.52;12.68;;;19.30;99.90;;;;;;5033209;28;20478;-40
2022/09/13 04:41:35;;;;;;;19.13;10.82;;;19.30;99.90;;;;;;5033396;28;20037;-39
2022/09/13 04:44:01;;;;;;;16.20;10.38;;;19.30;99.90;;;;;;5038624;28;20024;-35
2022/09/13 04:46:28;;;;;;;22.85;13.05;;;19.30;99.90;;;;;;5046281;28;20052;-40
2022/09/13 04:48:55;;;;;;;21.55;12.48;;;19.20;99.90;;;;;;5034817;28;20036;-40
2022/09/13 04:51:21;;;;;;;23.27;12.27;;;19.20;99.90;;;;;;5032966;28;20033;-40
2022/09/13 04:53:54;;;;;;;30.52;15.90;;;19.30;99.90;;;;;;5031050;28;20033;-40
2022/09/13 04:56:23;;;;;;;32.58;15.43;;;19.30;99.90;;;;;;5020268;28;20495;-39
2022/09/13 04:58:54;;;;;;;29.65;15.80;;;19.30;99.90;;;;;;5035216;28;20099;-39
2022/09/13 05:01:21;;;;;;;25.23;12.82;;;19.30;99.90;;;;;;5025304;28;20040;-40
2022/09/13 05:03:47;;;;;;;22.27;13.30;;;19.40;99.90;;;;;;5032053;28;20021;-40
2022/09/13 05:06:18;;;;;;;20.42;13.20;;;19.40;99.90;;;;;;5033689;28;20477;-39
2022/09/13 05:08:48;;;;;;;30.10;15.10;;;19.40;99.90;;;;;;5031577;28;20022;-39
2022/09/13 05:11:14;;;;;;;27.17;14.55;;;19.40;99.90;;;;;;5030513;28;20045;-40
2022/09/13 05:13:39;;;;;;;31.38;14.90;;;19.40;99.90;;;;;;5031715;28;20029;-33
2022/09/13 05:16:06;;;;;;;22.30;13.40;;;19.40;99.90;;;;;;5029901;28;20037;-44
2022/09/13 05:18:33;;;;;;;24.97;14.00;;;19.40;99.90;;;;;;5032378;28;20515;-39
2022/09/13 05:21:00;;;;;;;23.15;13.68;;;19.40;99.90;;;;;;5033142;28;20030;-47
2022/09/13 05:23:27;;;;;;;24.63;13.80;;;19.40;99.90;;;;;;5032442;28;20481;-65
2022/09/13 05:26:01;;;;;;;23.40;12.20;;;19.50;99.90;;;;;;5024960;28;20026;-36
2022/09/13 05:28:29;;;;;;;22.13;13.63;;;19.50;99.90;;;;;;5036100;28;20481;-38
2022/09/13 05:30:57;;;;;;;29.73;14.15;;;19.50;99.90;;;;;;5030614;28;20033;-40
2022/09/13 05:33:24;;;;;;;33.17;16.52;;;19.50;99.90;;;;;;5026443;28;20036;-40
2022/09/13 05:35:50;;;;;;;30.45;15.73;;;19.60;99.90;;;;;;5027107;28;20056;-39
2022/09/13 05:38:16;;;;;;;26.87;15.10;;;19.60;99.90;;;;;;5032755;28;20049;-39
2022/09/13 05:40:42;;;;;;;29.50;15.32;;;19.60;99.90;;;;;;5029686;28;20041;-57
2022/09/13 05:43:07;;;;;;;34.70;17.48;;;19.60;99.90;;;;;;5031734;28;20064;-40
2022/09/13 05:45:33;;;;;;;28.88;15.40;;;19.70;99.90;;;;;;5027668;28;20021;-40
2022/09/13 05:47:59;;;;;;;30.65;16.10;;;19.70;99.90;;;;;;5048851;28;20021;-39
2022/09/13 05:50:24;;;;;;;26.38;14.68;;;19.70;99.90;;;;;;5031478;28;20030;-40
2022/09/13 05:52:54;;;;;;;27.33;14.55;;;19.70;99.90;;;;;;5031725;28;20049;-40
2022/09/13 05:55:20;;;;;;;27.00;13.45;;;19.70;99.90;;;;;;5022846;28;20033;-39
2022/09/13 05:57:46;;;;;;;30.80;15.55;;;19.80;99.90;;;;;;5028258;28;20035;-40
2022/09/13 06:00:13;;;;;;;30.27;16.40;;;19.80;99.90;;;;;;5040242;28;20486;-40
2022/09/13 06:02:40;;;;;;;24.88;13.70;;;19.80;99.90;;;;;;5031691;28;20032;-42
2022/09/13 06:05:06;;;;;;;27.25;15.90;;;19.80;99.90;;;;;;5032174;28;20489;-39
2022/09/13 06:07:32;;;;;;;30.13;16.48;;;19.80;99.90;;;;;;5031410;28;20060;-41
2022/09/13 06:09:57;;;;;;;28.63;13.52;;;19.80;99.90;;;;;;5030740;28;20026;-37
2022/09/13 06:12:23;;;;;;;28.50;14.82;;;19.90;99.90;;;;;;5031330;28;20057;-40
2022/09/13 06:14:49;;;;;;;25.17;12.13;;;19.90;99.90;;;;;;5021518;28;20041;-37
2022/09/13 06:17:14;;;;;;;22.70;12.13;;;19.90;99.90;;;;;;5025180;28;20067;-40
2022/09/13 06:19:40;;;;;;;23.80;11.98;;;19.90;99.90;;;;;;5034898;28;20056;-40
2022/09/13 06:22:06;;;;;;;18.67;10.82;;;19.90;99.90;;;;;;5030211;28;20108;-49
2022/09/13 06:24:31;;;;;;;19.55;12.05;;;20.00;99.90;;;;;;5030969;28;20026;-39
2022/09/13 06:26:57;;;;;;;27.05;14.75;;;20.00;99.90;;;;;;5035211;28;20061;-38
2022/09/13 06:29:23;;;;;;;25.58;13.95;;;20.10;99.90;;;;;;5039082;28;20103;-39
2022/09/13 06:31:49;;;;;;;27.80;15.63;;;20.10;99.90;;;;;;5039463;28;20393;-40
2022/09/13 06:34:16;;;;;;;23.48;13.75;;;20.10;99.90;;;;;;5032939;28;20056;-39
2022/09/13 06:36:42;;;;;;;26.65;15.27;;;20.10;99.90;;;;;;5030279;28;20486;-39
2022/09/13 06:39:08;;;;;;;29.70;13.48;;;20.10;99.90;;;;;;5031065;28;20053;-39
2022/09/13 06:41:34;;;;;;;33.70;14.68;;;20.10;99.90;;;;;;5027650;28;20044;-39
2022/09/13 06:44:01;;;;;;;19.45;11.73;;;20.10;99.90;;;;;;5014062;28;20010;-47
2022/09/13 06:46:29;;;;;;;26.33;13.15;;;20.20;99.90;;;;;;5016715;28;20560;-47
2022/09/13 06:48:57;;;;;;;27.17;13.95;;;20.10;99.90;;;;;;5018242;28;20025;-36
2022/09/13 06:51:24;;;;;;;29.00;14.57;;;20.10;99.90;;;;;;5011487;28;20029;-39
2022/09/13 06:53:51;;;;;;;28.67;14.82;;;20.20;99.90;;;;;;5013449;28;20390;-36
2022/09/13 06:56:19;;;;;;;32.47;13.70;;;20.20;99.90;;;;;;5025563;28;20037;-43
2022/09/13 06:58:48;;;;;;;24.42;13.73;;;20.20;99.90;;;;;;5031327;28;20069;-38
2022/09/13 07:01:17;;;;;;;28.80;13.88;;;20.20;99.90;;;;;;5028930;28;20127;-39
2022/09/13 07:03:48;;;;;;;20.75;13.15;;;20.30;99.90;;;;;;5024823;28;20057;-38
2022/09/13 07:06:15;;;;;;;27.60;13.65;;;20.30;99.90;;;;;;5027731;28;20390;-39
2022/09/13 07:08:42;;;;;;;20.60;11.23;;;20.20;99.90;;;;;;5030623;28;20017;-45
2022/09/13 07:11:09;;;;;;;19.73;10.43;;;20.30;99.90;;;;;;5029798;28;20366;-39
2022/09/13 07:13:35;;;;;;;19.30;11.32;;;20.30;99.90;;;;;;5026786;28;20526;-37
2022/09/13 07:16:06;;;;;;;16.08;9.50;;;20.20;99.90;;;;;;5015387;28;20145;-32
2022/09/13 07:18:31;;;;;;;19.05;11.55;;;20.20;99.90;;;;;;5011951;28;20033;-39
2022/09/13 07:21:05;;;;;;;20.58;11.15;;;20.10;99.90;;;;;;5026262;28;20030;-38
2022/09/13 07:23:32;;;;;;;16.15;11.35;;;20.10;99.90;;;;;;5034983;28;20560;-43
2022/09/13 07:26:04;;;;;;;21.33;12.07;;;20.00;99.90;;;;;;5030435;28;20524;-43
2022/09/13 07:28:33;;;;;;;20.80;11.85;;;20.00;99.90;;;;;;5024794;28;20462;-45
2022/09/13 07:31:08;;;;;;;26.05;14.02;;;20.00;99.90;;;;;;5023109;28;20017;-38
2022/09/13 07:33:35;;;;;;;24.23;12.80;;;20.00;99.90;;;;;;5015514;28;20597;-43
2022/09/13 07:36:05;;;;;;;20.95;12.68;;;20.00;99.90;;;;;;5022083;28;20078;-39
2022/09/13 07:38:40;;;;;;;22.52;12.70;;;20.10;99.90;;;;;;5027457;28;20049;-40
2022/09/13 07:41:10;;;;;;;22.13;11.18;;;20.20;99.90;;;;;;5035084;28;20037;-40
2022/09/13 07:43:36;;;;;;;17.90;10.30;;;20.30;99.90;;;;;;5026364;28;20022;-37
2022/09/13 07:46:12;;;;;;;14.20;8.25;;;20.40;99.90;;;;;;5027779;28;20474;-40
2022/09/13 07:48:40;;;;;;;12.00;7.72;;;20.50;99.90;;;;;;5024469;28;20529;-41
2022/09/13 07:51:11;;;;;;;12.30;7.93;;;20.50;99.90;;;;;;5029795;28;20021;-38
2022/09/13 07:53:38;;;;;;;14.30;6.38;;;20.60;99.90;;;;;;5032137;28;20478;-39
2022/09/13 07:56:08;;;;;;;14.70;6.07;;;20.60;99.90;;;;;;5021356;28;20113;-40
2022/09/13 07:58:35;;;;;;;12.60;5.80;;;20.70;99.90;;;;;;5015621;28;20467;-42
2022/09/13 08:01:11;;;;;;;10.75;4.50;;;20.60;99.90;;;;;;5020630;28;20033;-38
2022/09/13 08:03:37;;;;;;;12.50;5.65;;;20.70;99.90;;;;;;5027148;28;20033;-40
2022/09/13 08:06:04;;;;;;;8.05;3.75;;;20.80;99.90;;;;;;5033084;28;20029;-38
2022/09/13 08:08:31;;;;;;;7.22;4.82;;;20.70;99.90;;;;;;5032026;28;20561;-38
2022/09/13 08:10:57;;;;;;;7.15;4.53;;;20.60;99.90;;;;;;5022172;28;20493;-39
2022/09/13 08:13:23;;;;;;;9.87;3.53;;;20.50;99.90;;;;;;5022026;28;20034;-44
2022/09/13 08:15:49;;;;;;;4.60;3.83;;;20.50;99.90;;;;;;5015545;28;20080;-49
2022/09/13 08:18:17;;;;;;;5.00;3.30;;;20.60;99.90;;;;;;5015441;28;20368;-37
2022/09/13 08:20:42;;;;;;;6.40;3.47;;;20.40;99.90;;;;;;5023133;28;20029;-40
2022/09/13 08:23:09;;;;;;;10.85;3.75;;;20.50;99.90;;;;;;5030724;28;20433;-40
2022/09/13 08:25:37;;;;;;;5.60;3.60;;;20.50;99.90;;;;;;5013864;28;20386;-39
2022/09/13 08:28:06;;;;;;;;;;;20.50;99.90;;;;;;5021985;28;20406;-41
2022/09/13 08:30:36;;;;;;;10.80;4.18;;;20.50;99.90;;;;;;5026946;28;19909;-40
2022/09/13 08:33:05;;;;;;;6.72;3.17;;;20.60;99.90;;;;;;5019947;28;20025;-40
2022/09/13 08:35:32;;;;;;;5.30;2.92;;;20.70;99.90;;;;;;5020020;28;20130;-41
2022/09/13 08:37:58;;;;;;;4.60;2.70;;;20.80;99.90;;;;;;5018122;28;20058;-46
2022/09/13 08:40:27;;;;;;;3.20;2.88;;;20.90;99.90;;;;;;5015446;28;20105;-40
2022/09/13 08:43:16;;;;;;;6.03;3.10;;;21.00;99.90;;;;;;5019318;28;20164;-41
2022/09/13 08:45:47;;;;;;;4.82;2.45;;;21.10;99.90;;;;;;5031377;28;20057;-39
2022/09/13 08:48:17;;;;;;;3.05;2.00;;;21.00;99.90;;;;;;5034676;28;20469;-39
2022/09/13 08:50:44;;;;;;;4.38;2.22;;;21.00;99.90;;;;;;5033682;28;20477;-41
2022/09/13 08:53:24;;;;;;;3.47;2.03;;;21.00;99.90;;;;;;5032190;28;20092;-42
2022/09/13 08:56:15;;;;;;;1.73;1.63;;;21.00;99.90;;;;;;5023385;28;20400;-41
2022/09/13 08:59:18;;;;;;;3.40;1.42;;;20.90;99.90;;;;;;5020527;28;20513;-40
2022/09/13 09:02:01;;;;;;;2.35;1.75;;;21.00;99.90;;;;;;5030218;28;20394;-38
2022/09/13 09:04:31;;;;;;;2.17;1.55;;;21.20;99.90;;;;;;5014984;28;20493;-38
2022/09/13 09:07:15;;;;;;;3.60;1.10;;;21.30;99.90;;;;;;5014638;28;20036;-43
2022/09/13 09:09:52;;;;;;;2.00;1.80;;;21.40;99.90;;;;;;5014568;28;20080;-40
2022/09/13 09:12:38;;;;;;;2.28;1.17;;;21.40;99.90;;;;;;5022464;28;20485;-42
2022/09/13 09:15:15;;;;;;;2.83;1.63;;;21.40;99.90;;;;;;5014206;28;20026;-39
2022/09/13 09:17:50;;;;;;;;;;;21.50;99.90;;;;;;5015902;28;20487;-40
2022/09/13 09:20:21;;;;;;;7.35;1.30;;;21.40;99.90;;;;;;5029567;28;19952;-40
2022/09/13 09:22:48;;;;;;;1.02;1.00;;;21.40;99.90;;;;;;5012621;28;20494;-40
2022/09/13 09:25:13;;;;;;;3.03;1.50;;;21.50;99.90;;;;;;5014218;28;20437;-41
2022/09/13 09:27:39;;;;;;;3.22;1.33;;;21.50;99.90;;;;;;5014682;28;20118;-42
2022/09/13 09:30:12;;;;;;;2.90;2.00;;;21.50;99.90;;;;;;5031922;28;20029;-41
2022/09/13 09:32:56;;;;;;;1.83;1.48;;;21.50;99.90;;;;;;5024536;28;20044;-37
2022/09/13 09:35:53;;;;;;;2.58;1.23;;;21.50;99.90;;;;;;5026009;28;20394;-35
2022/09/13 09:38:42;;;;;;;1.73;1.50;;;21.50;99.90;;;;;;5013378;28;20073;-31
2022/09/13 09:41:31;;;;;;;2.80;1.23;;;21.50;99.90;;;;;;5024809;28;20414;-30
2022/09/13 09:44:19;;;;;;;9.60;1.30;;;21.50;99.90;;;;;;5030513;28;20018;-36
2022/09/13 09:46:53;;;;;;;7.07;1.33;;;21.40;99.90;;;;;;5030046;28;20096;-32
2022/09/13 09:52:21;;;;;;;1.70;1.15;;;21.50;99.90;;;;;;5028696;28;20191;-35
2022/09/13 09:54:49;;;;;;;1.13;1.02;;;21.60;99.90;;;;;;5033544;28;20033;-30
2022/09/13 09:57:17;;;;;;;2.53;1.40;;;21.60;99.90;;;;;;5031012;28;20486;-35
2022/09/13 09:59:43;;;;;;;4.05;1.40;;;21.70;99.90;;;;;;5033348;28;20024;-37
2022/09/13 10:02:20;;;;;;;3.13;1.00;;;21.70;99.90;;;;;;5018979;28;20505;-40
2022/09/13 10:05:01;;;;;;;2.28;0.95;;;21.60;99.90;;;;;;5014895;28;20033;-41
2022/09/13 10:07:31;;;;;;;3.15;1.30;;;21.50;99.90;;;;;;5017245;28;20021;-39
2022/09/13 10:09:57;;;;;;;1.92;1.42;;;21.50;99.90;;;;;;5023051;28;20053;-40
2022/09/13 10:12:32;;;;;;;1.33;1.23;;;21.60;99.90;;;;;;5024586;28;20065;-47
2022/09/13 10:15:16;;;;;;;4.65;1.33;;;21.60;99.90;;;;;;5016653;28;20502;-40
2022/09/13 10:17:42;;;;;;;3.78;1.20;;;21.60;99.90;;;;;;5019759;28;20486;-43
2022/09/13 10:20:13;;;;;;;5.38;1.58;;;21.60;99.90;;;;;;5032639;28;20505;-40
2022/09/13 10:22:41;;;;;;;1.73;0.93;;;21.60;99.90;;;;;;5021938;28;20030;-55
2022/09/13 10:25:22;;;;;;;2.95;1.17;;;21.70;99.90;;;;;;5013275;28;20022;-39
2022/09/13 10:27:52;;;;;;;2.58;1.10;;;21.80;99.90;;;;;;5031112;28;20022;-39
2022/09/13 10:30:37;;;;;;;5.03;1.48;;;22.00;99.90;;;;;;5032410;28;20489;-38
2022/09/13 10:33:04;;;;;;;6.45;1.42;;;22.10;99.90;;;;;;5016846;28;20040;-47
2022/09/13 10:35:31;;;;;;;5.90;1.20;;;22.10;99.90;;;;;;5021864;28;20556;-39
2022/09/13 10:37:57;;;;;;;2.17;1.13;;;22.10;99.90;;;;;;5041108;28;20140;-40
2022/09/13 10:40:32;;;;;;;4.10;1.40;;;22.30;99.90;;;;;;5025896;28;20054;-41
2022/09/13 10:43:02;;;;;;;2.33;1.20;;;22.40;99.90;;;;;;5017951;28;20381;-38
2022/09/13 10:45:30;;;;;;;9.18;2.25;;;22.40;99.90;;;;;;5032075;28;20029;-41
2022/09/13 10:48:16;;;;;;;2.47;1.52;;;22.50;99.90;;;;;;5032995;28;20040;-40
2022/09/13 10:51:00;;;;;;;4.05;1.40;;;22.40;99.90;;;;;;5032156;28;20029;-39
2022/09/13 10:53:33;;;;;;;3.30;1.50;;;22.40;99.90;;;;;;5031334;28;20034;-40
2022/09/13 10:56:01;;;;;;;7.57;1.75;;;22.60;99.90;;;;;;5032662;28;20041;-39
2022/09/13 10:58:27;;;;;;;2.55;1.52;;;22.70;99.90;;;;;;5013744;28;20508;-41
2022/09/13 11:01:23;;;;;;;2.22;1.60;;;22.70;99.90;;;;;;5023920;28;20108;-40
2022/09/13 11:03:55;;;;;;;1.45;1.35;;;22.70;99.90;;;;;;5032752;28;20033;-40
2022/09/13 11:06:23;;;;;;;4.63;1.20;;;22.40;99.90;;;;;;5031788;28;20473;-40
2022/09/13 11:09:14;;;;;;;5.90;1.20;;;22.20;99.90;;;;;;5023836;28;20030;-39
2022/09/13 11:12:02;;;;;;;3.00;1.27;;;22.10;99.90;;;;;;5028490;28;20152;-39
2022/09/13 11:15:00;;;;;;;4.97;1.17;;;22.10;99.90;;;;;;5016650;28;20030;-38
2022/09/13 11:18:02;;;;;;;1.38;1.08;;;22.20;99.90;;;;;;5016626;28;20478;-39
2022/09/13 11:20:37;;;;;;;1.15;1.05;;;22.70;99.90;;;;;;5023122;28;20042;-42
2022/09/13 11:23:21;;;;;;;2.28;0.80;;;23.00;99.90;;;;;;5052380;28;20033;-41
2022/09/13 11:26:19;;;;;;;2.33;1.65;;;23.40;99.90;;;;;;5056145;28;20040;-44
2022/09/13 11:29:07;;;;;;;3.00;1.20;;;23.30;99.90;;;;;;5052483;28;20100;-39
2022/09/13 11:31:49;;;;;;;2.20;1.13;;;23.30;99.90;;;;;;5054034;28;20052;-40
2022/09/13 11:34:51;;;;;;;2.05;1.10;;;23.00;99.90;;;;;;5053481;28;20045;-39
2022/09/13 11:37:26;;;;;;;3.95;1.58;;;23.10;99.90;;;;;;5042486;28;20041;-40
2022/09/13 11:40:14;;;;;;;1.77;1.08;;;23.30;99.90;;;;;;5031035;28;20444;-39
2022/09/13 11:42:44;;;;;;;1.40;1.17;;;23.30;99.90;;;;;;5016115;28;20080;-41
2022/09/13 11:45:23;;;;;;;0.73;0.73;;;23.10;99.90;;;;;;5055938;28;20021;-39
2022/09/13 11:47:57;;;;;;;4.15;1.25;;;23.30;99.90;;;;;;5055801;28;20045;-42
2022/09/13 11:50:42;;;;;;;1.65;0.90;;;23.40;99.90;;;;;;5055793;28;20063;-40
2022/09/13 11:53:13;;;;;;;4.32;1.42;;;23.30;99.90;;;;;;5053711;28;20541;-40
2022/09/13 11:55:45;;;;;;;2.13;1.20;;;23.30;99.90;;;;;;5053303;28;20029;-39
2022/09/13 11:58:17;;;;;;;1.15;0.95;;;23.00;99.90;;;;;;5055704;28;20024;-44
2022/09/13 12:01:06;;;;;;;4.47;0.82;;;22.90;99.90;;;;;;5055616;28;20013;-40
2022/09/13 12:04:02;;;;;;;2.72;0.60;;;23.00;99.90;;;;;;5049857;28;20360;-36
2022/09/13 12:06:43;;;;;;;1.67;1.02;;;23.30;99.90;;;;;;5021942;28;20377;-45
2022/09/13 12:09:30;;;;;;;6.55;1.50;;;23.60;99.90;;;;;;5026163;28;20029;-39
2022/09/13 12:12:11;;;;;;;2.08;1.20;;;23.60;99.90;;;;;;5030741;28;20033;-38
2022/09/13 12:14:58;;;;;;;0.85;0.80;;;23.70;99.90;;;;;;5017294;28;20029;-38
2022/09/13 12:17:50;;;;;;;15.63;5.15;;;23.80;99.90;;;;;;5031921;28;20025;-39
2022/09/13 12:20:56;;;;;;;10.68;1.75;;;24.00;99.90;;;;;;5028750;28;20026;-40
2022/09/13 12:23:53;;;;;;;2.50;1.38;;;24.10;99.90;;;;;;5033287;28;20032;-40
2022/09/13 12:26:33;;;;;;;1.13;0.75;;;24.20;99.90;;;;;;5034884;28;20051;-41
2022/09/13 12:29:19;;;;;;;1.10;0.93;;;24.60;99.90;;;;;;5026953;28;20034;-39
2022/09/13 12:31:45;;;;;;;2.30;0.73;;;24.80;99.90;;;;;;5030818;28;20032;-34
2022/09/13 12:34:31;;;;;;;1.77;1.17;;;24.90;99.90;;;;;;5021830;28;20022;-35
2022/09/13 12:36:56;;;;;;;1.43;1.00;;;24.70;99.90;;;;;;5024631;28;20125;-38
2022/09/13 12:39:45;;;;;;;2.03;0.82;;;24.70;99.90;;;;;;5034603;28;20484;-39
2022/09/13 12:42:15;;;;;;;2.42;1.20;;;24.40;99.90;;;;;;5014722;28;20112;-35
2022/09/13 12:45:20;;;;;;;3.78;1.23;;;24.30;99.90;;;;;;5018915;28;20028;-35
2022/09/13 12:48:06;;;;;;;5.57;1.38;;;24.30;99.90;;;;;;5017235;28;20474;-31
2022/09/13 12:51:06;;;;;;;1.00;0.90;;;24.30;99.90;;;;;;5032339;28;20552;-30
2022/09/13 12:53:59;;;;;;;12.05;1.17;;;24.20;99.90;;;;;;5019151;28;20360;-31
2022/09/13 12:56:49;;;;;;;1.38;0.90;;;24.00;99.90;;;;;;5016290;28;20072;-34
2022/09/13 12:59:27;;;;;;;4.85;0.80;;;24.00;99.90;;;;;;5022563;28;20026;-33
2022/09/13 13:01:53;;;;;;;1.10;0.80;;;24.10;99.90;;;;;;5027891;28;20026;-33
2022/09/13 13:04:32;;;;;;;2.65;0.90;;;24.30;99.90;;;;;;5020745;28;20017;-35
2022/09/13 13:06:59;;;;;;;3.10;0.90;;;24.70;99.90;;;;;;5020756;28;20042;-38
2022/09/13 13:09:43;;;;;;;0.95;0.70;;;24.70;99.90;;;;;;5024319;28;20037;-36
2022/09/13 13:12:11;;;;;;;1.83;0.60;;;24.40;99.90;;;;;;5020705;28;20473;-33
2022/09/13 13:14:40;;;;;;;3.88;1.23;;;24.40;99.90;;;;;;5015802;28;20053;-38